Time;durP1;ratioP1;P1;durP2;ratioP2;P2;SDS_P1;SDS_P2;PMS_P1;PMS_P2;Temp;Humidity;BMP_temperature;BMP_pressure;BME280_temperature;BME280_humidity;BME280_pressure;Samples;Min_cycle;Max_cycle;Signal;HPM_P1;HPM_P2
2022/11/14 00:00:50;;;;;;;2.60;2.03;;;7.30;99.90;;;;;;4402156;32;20113;-75
2022/11/14 00:03:16;;;;;;;2.85;2.00;;;7.20;99.90;;;;;;4393660;32;20086;-75
2022/11/14 00:05:44;;;;;;;5.45;2.45;;;7.30;99.90;;;;;;4388571;32;20097;-76
2022/11/14 00:08:15;;;;;;;6.70;3.83;;;7.20;99.90;;;;;;4394907;32;20124;-74
2022/11/14 00:10:40;;;;;;;2.45;1.77;;;7.30;99.90;;;;;;4402423;32;20129;-75
2022/11/14 00:13:06;;;;;;;6.30;1.87;;;7.30;99.90;;;;;;4397584;32;20168;-73
2022/11/14 00:15:31;;;;;;;4.30;2.45;;;7.30;99.90;;;;;;4404769;32;20077;-73
2022/11/14 00:17:57;;;;;;;8.10;2.92;;;7.30;99.90;;;;;;4399203;32;20175;-73
2022/11/14 00:20:22;;;;;;;5.50;2.00;;;7.20;99.90;;;;;;4406167;32;20391;-73
2022/11/14 00:22:48;;;;;;;4.40;1.87;;;7.20;99.90;;;;;;4404246;32;20070;-74
2022/11/14 00:25:13;;;;;;;4.60;2.10;;;7.20;99.90;;;;;;4399154;32;20074;-72
2022/11/14 00:27:38;;;;;;;4.87;2.03;;;7.20;99.90;;;;;;4401049;32;20159;-74
2022/11/14 00:30:06;;;;;;;3.40;2.30;;;7.20;99.90;;;;;;4398236;32;20097;-74
2022/11/14 00:32:31;;;;;;;5.25;2.05;;;7.20;99.90;;;;;;4397819;32;20074;-77
2022/11/14 00:34:57;;;;;;;4.40;1.85;;;7.20;99.90;;;;;;4383426;32;20306;-75
2022/11/14 00:37:22;;;;;;;4.40;2.28;;;7.10;99.90;;;;;;4387852;32;20078;-76
2022/11/14 00:39:48;;;;;;;2.97;1.55;;;7.20;99.90;;;;;;4403775;32;20090;-74
2022/11/14 00:42:13;;;;;;;4.05;2.45;;;7.10;99.90;;;;;;4397042;32;20565;-73
2022/11/14 00:44:39;;;;;;;4.82;2.50;;;7.10;99.90;;;;;;4403226;32;20483;-73
2022/11/14 00:47:05;;;;;;;8.65;1.70;;;7.10;99.90;;;;;;4400277;32;20087;-73
2022/11/14 00:49:30;;;;;;;1.98;1.77;;;7.10;99.90;;;;;;4398729;32;20486;-74
2022/11/14 00:51:55;;;;;;;4.00;1.95;;;7.10;99.90;;;;;;4400896;32;20169;-76
2022/11/14 00:54:21;;;;;;;4.32;2.90;;;7.00;99.90;;;;;;4404014;32;20521;-74
2022/11/14 00:56:46;;;;;;;14.65;2.90;;;7.00;99.90;;;;;;4401185;32;20129;-74
2022/11/14 00:59:12;;;;;;;7.75;2.75;;;7.00;99.90;;;;;;4399891;32;20124;-73
2022/11/14 01:01:37;;;;;;;1.35;1.25;;;7.00;99.90;;;;;;4405114;32;20081;-73
2022/11/14 01:04:03;;;;;;;4.12;1.80;;;7.00;99.90;;;;;;4386281;32;20070;-77
2022/11/14 01:06:28;;;;;;;8.30;2.83;;;7.00;99.90;;;;;;4384495;32;20066;-74
2022/11/14 01:08:54;;;;;;;7.47;3.37;;;7.00;99.90;;;;;;4400580;32;20077;-75
2022/11/14 01:11:21;;;;;;;7.75;2.45;;;7.00;99.90;;;;;;4397264;32;21158;-72
2022/11/14 01:13:46;;;;;;;3.37;2.00;;;7.00;99.90;;;;;;4400256;32;20070;-73
2022/11/14 01:16:12;;;;;;;2.83;1.65;;;7.00;99.90;;;;;;4399673;32;20182;-74
2022/11/14 01:18:39;;;;;;;1.85;1.65;;;7.00;99.90;;;;;;4402056;32;20070;-73
2022/11/14 01:21:06;;;;;;;9.88;2.80;;;6.90;99.90;;;;;;4399844;32;20517;-73
2022/11/14 01:23:32;;;;;;;3.42;1.62;;;6.90;99.90;;;;;;4400683;32;20177;-73
2022/11/14 01:26:03;;;;;;;7.45;2.40;;;7.00;99.90;;;;;;4399205;32;20163;-74
2022/11/14 01:28:28;;;;;;;;;;;6.90;99.90;;;;;;4398125;32;20058;-74
2022/11/14 01:30:54;;;;;;;3.10;1.83;;;6.90;99.90;;;;;;4399549;32;19965;-74
2022/11/14 01:33:20;;;;;;;5.45;2.17;;;6.90;99.90;;;;;;4392616;32;20090;-77
2022/11/14 01:35:46;;;;;;;2.58;2.37;;;6.90;99.90;;;;;;4384786;32;20061;-75
2022/11/14 01:38:13;;;;;;;13.07;3.78;;;6.80;99.90;;;;;;4395105;32;20093;-74
2022/11/14 01:40:42;;;;;;;5.70;3.53;;;6.80;99.90;;;;;;4399791;32;20054;-74
2022/11/14 01:43:22;;;;;;;10.02;4.18;;;6.80;99.90;;;;;;4399974;32;20993;-74
2022/11/14 01:45:54;;;;;;;5.93;2.80;;;6.80;99.90;;;;;;4402615;32;20082;-73
2022/11/14 01:48:25;;;;;;;3.20;2.05;;;6.70;99.90;;;;;;4402673;32;20066;-73
2022/11/14 01:50:57;;;;;;;3.90;2.20;;;6.70;99.90;;;;;;4402275;32;20395;-74
2022/11/14 01:53:23;;;;;;;4.62;2.45;;;6.70;99.90;;;;;;4401405;32;20116;-75
2022/11/14 01:55:49;;;;;;;10.13;2.40;;;6.70;99.90;;;;;;4403064;32;20443;-75
2022/11/14 01:58:16;;;;;;;4.03;2.97;;;6.70;99.90;;;;;;4400959;32;20133;-74
2022/11/14 02:00:43;;;;;;;2.53;1.95;;;6.70;99.90;;;;;;4402984;32;20132;-74
2022/11/14 02:03:12;;;;;;;8.30;4.55;;;6.70;99.90;;;;;;4396064;32;20073;-74
2022/11/14 02:05:38;;;;;;;26.98;2.05;;;6.70;99.90;;;;;;4385227;32;20397;-75
2022/11/14 02:08:03;;;;;;;6.32;2.65;;;6.70;99.90;;;;;;4398837;32;20089;-74
2022/11/14 02:10:29;;;;;;;4.68;2.12;;;6.80;99.90;;;;;;4401012;32;20098;-74
2022/11/14 02:12:54;;;;;;;3.22;1.58;;;6.80;99.90;;;;;;4399342;32;20120;-73
2022/11/14 02:15:20;;;;;;;10.43;3.30;;;6.80;99.90;;;;;;4401861;32;20069;-73
2022/11/14 02:17:46;;;;;;;3.17;2.17;;;6.90;99.90;;;;;;4399896;32;20081;-74
2022/11/14 02:20:16;;;;;;;2.97;1.40;;;6.90;99.90;;;;;;4402952;32;20120;-73
2022/11/14 02:22:41;;;;;;;3.70;2.20;;;6.90;99.90;;;;;;4403815;32;20134;-73
2022/11/14 02:25:11;;;;;;;10.80;3.55;;;6.90;99.90;;;;;;4402097;32;20629;-74
2022/11/14 02:27:39;;;;;;;7.30;3.00;;;7.00;99.90;;;;;;4399257;32;20070;-75
2022/11/14 02:30:09;;;;;;;10.68;3.85;;;7.10;99.90;;;;;;4399753;32;20526;-75
2022/11/14 02:32:35;;;;;;;;;;;7.10;99.90;;;;;;4399519;32;20888;-75
2022/11/14 02:35:00;;;;;;;17.02;2.45;;;7.10;99.90;;;;;;4383616;32;20049;-74
2022/11/14 02:37:26;;;;;;;5.10;2.58;;;7.00;99.90;;;;;;4393850;32;20456;-73
2022/11/14 02:39:51;;;;;;;9.00;2.50;;;7.10;99.90;;;;;;4400567;32;20081;-73
2022/11/14 02:42:17;;;;;;;7.70;2.80;;;7.20;99.90;;;;;;4404196;32;20438;-74
2022/11/14 02:44:42;;;;;;;14.43;3.10;;;7.20;99.90;;;;;;4401463;32;20121;-74
2022/11/14 02:47:08;;;;;;;4.12;1.98;;;7.20;99.90;;;;;;4400285;32;20061;-73
2022/11/14 02:49:33;;;;;;;11.98;2.72;;;7.20;99.90;;;;;;4402496;32;20073;-74
2022/11/14 02:51:59;;;;;;;3.67;1.98;;;7.20;99.90;;;;;;4399723;32;20513;-74
2022/11/14 02:54:25;;;;;;;6.97;2.62;;;7.20;99.90;;;;;;4401064;32;20105;-73
2022/11/14 02:56:50;;;;;;;4.85;3.22;;;7.20;99.90;;;;;;4399278;32;20077;-76
2022/11/14 02:59:16;;;;;;;19.50;2.70;;;7.10;99.90;;;;;;4403982;32;20169;-74
2022/11/14 03:01:41;;;;;;;5.60;2.72;;;7.20;99.90;;;;;;4400079;32;20066;-75
2022/11/14 03:04:07;;;;;;;11.65;1.62;;;7.30;99.90;;;;;;4386765;32;20105;-76
2022/11/14 03:06:33;;;;;;;9.20;3.15;;;7.20;99.90;;;;;;4383216;32;20451;-77
2022/11/14 03:08:58;;;;;;;5.00;2.78;;;7.20;99.90;;;;;;4403109;32;20073;-74
2022/11/14 03:11:24;;;;;;;5.30;2.40;;;7.20;99.90;;;;;;4400919;32;20079;-74
2022/11/14 03:13:49;;;;;;;17.70;2.53;;;7.30;99.90;;;;;;4403467;32;20131;-74
2022/11/14 03:16:15;;;;;;;5.18;2.50;;;7.30;99.90;;;;;;4400177;32;20177;-73
2022/11/14 03:18:41;;;;;;;6.55;2.85;;;7.30;99.90;;;;;;4403859;32;20069;-74
2022/11/14 03:21:09;;;;;;;5.72;3.87;;;7.20;99.90;;;;;;4401251;32;20569;-73
2022/11/14 03:23:36;;;;;;;4.55;3.10;;;7.30;99.90;;;;;;4397716;32;20066;-74
2022/11/14 03:26:04;;;;;;;9.85;2.85;;;7.20;99.90;;;;;;4398476;32;20089;-74
2022/11/14 03:28:29;;;;;;;15.80;2.97;;;7.30;99.90;;;;;;4402422;32;20669;-75
2022/11/14 03:30:55;;;;;;;12.63;3.83;;;7.30;99.90;;;;;;4403157;32;20082;-75
2022/11/14 03:33:20;;;;;;;4.90;1.80;;;7.30;99.90;;;;;;4392807;32;20062;-76
2022/11/14 03:35:48;;;;;;;7.93;3.28;;;7.40;99.90;;;;;;4384254;32;20106;-75
2022/11/14 03:38:14;;;;;;;6.97;2.90;;;7.40;99.90;;;;;;4401367;32;20077;-75
2022/11/14 03:40:39;;;;;;;8.18;3.40;;;7.30;99.90;;;;;;4401697;32;20162;-74
2022/11/14 03:43:05;;;;;;;3.30;1.75;;;7.20;99.90;;;;;;4398970;32;20066;-74
2022/11/14 03:45:30;;;;;;;1.92;1.37;;;7.20;99.90;;;;;;4401357;32;20113;-73
2022/11/14 03:47:56;;;;;;;6.35;3.22;;;7.20;99.90;;;;;;4403025;32;20066;-73
2022/11/14 03:50:22;;;;;;;9.18;4.03;;;7.10;99.90;;;;;;4401106;32;20070;-75
2022/11/14 03:52:49;;;;;;;11.07;4.80;;;7.20;99.90;;;;;;4404916;32;20089;-74
2022/11/14 03:55:15;;;;;;;6.20;2.97;;;7.10;99.90;;;;;;4403615;32;20087;-75
2022/11/14 03:57:40;;;;;;;4.28;2.12;;;7.10;99.90;;;;;;4400706;32;20411;-75
2022/11/14 04:00:08;;;;;;;3.25;1.83;;;7.20;99.90;;;;;;4402839;32;20610;-73
2022/11/14 04:02:33;;;;;;;3.65;2.40;;;7.10;99.90;;;;;;4398821;32;20521;-75
2022/11/14 04:04:59;;;;;;;21.48;3.05;;;7.10;99.90;;;;;;4385856;32;20095;-76
2022/11/14 04:07:24;;;;;;;4.68;2.97;;;7.10;99.90;;;;;;4392131;32;20057;-73
2022/11/14 04:09:50;;;;;;;7.03;2.85;;;7.00;99.90;;;;;;4402512;32;20150;-73
2022/11/14 04:12:16;;;;;;;8.45;3.30;;;7.10;99.90;;;;;;4399298;32;20133;-74
2022/11/14 04:14:42;;;;;;;25.17;3.53;;;7.00;99.90;;;;;;4400144;32;20160;-73
2022/11/14 04:17:08;;;;;;;3.25;2.12;;;7.00;99.90;;;;;;4401867;32;20518;-73
2022/11/14 04:19:33;;;;;;;4.75;1.95;;;7.00;99.90;;;;;;4400324;32;20090;-73
2022/11/14 04:21:58;;;;;;;3.80;2.72;;;7.00;99.90;;;;;;4403384;32;20085;-72
2022/11/14 04:24:24;;;;;;;6.55;2.78;;;7.00;99.90;;;;;;4402898;32;20070;-73
2022/11/14 04:26:49;;;;;;;4.70;2.50;;;7.00;99.90;;;;;;4400295;32;20069;-74
2022/11/14 04:29:15;;;;;;;7.95;2.45;;;6.90;99.90;;;;;;4402298;32;20140;-72
2022/11/14 04:31:40;;;;;;;6.72;2.95;;;6.90;99.90;;;;;;4404411;32;20078;-74
2022/11/14 04:34:06;;;;;;;4.47;1.65;;;6.90;99.90;;;;;;4389843;32;20062;-77
2022/11/14 04:36:31;;;;;;;2.95;2.65;;;7.00;99.90;;;;;;4384758;32;20125;-75
2022/11/14 04:38:57;;;;;;;4.57;2.70;;;6.90;99.90;;;;;;4398958;32;20086;-73
2022/11/14 04:41:22;;;;;;;10.68;3.92;;;6.90;99.90;;;;;;4397914;32;20069;-73
2022/11/14 04:43:48;;;;;;;2.50;1.37;;;6.90;99.90;;;;;;4399116;32;20074;-73
2022/11/14 04:46:13;;;;;;;1.92;1.65;;;6.90;99.90;;;;;;4399502;32;20107;-73
2022/11/14 04:48:38;;;;;;;8.93;5.22;;;6.90;99.90;;;;;;4399520;32;20066;-74
2022/11/14 04:51:04;;;;;;;6.25;2.58;;;6.90;99.90;;;;;;4399527;32;20143;-75
2022/11/14 04:53:30;;;;;;;5.03;3.12;;;6.80;99.90;;;;;;4406825;32;20078;-74
2022/11/14 04:55:55;;;;;;;12.32;3.45;;;6.80;99.90;;;;;;4398696;32;20074;-73
2022/11/14 04:58:20;;;;;;;4.05;1.77;;;6.90;99.90;;;;;;4398717;32;20114;-73
2022/11/14 05:00:47;;;;;;;14.30;3.50;;;6.80;99.90;;;;;;4401691;32;20098;-73
2022/11/14 05:03:12;;;;;;;16.80;3.53;;;6.80;99.90;;;;;;4397955;32;20469;-76
2022/11/14 05:05:38;;;;;;;7.78;3.50;;;6.90;99.90;;;;;;4382936;32;20082;-74
2022/11/14 05:08:03;;;;;;;10.48;2.95;;;6.90;99.90;;;;;;4398691;32;20514;-75
2022/11/14 05:10:29;;;;;;;13.77;3.65;;;6.90;99.90;;;;;;4400583;32;20066;-74
2022/11/14 05:12:55;;;;;;;7.10;1.73;;;6.90;99.90;;;;;;4400999;32;20142;-75
2022/11/14 05:15:21;;;;;;;6.28;2.70;;;6.90;99.90;;;;;;4400117;32;20126;-74
2022/11/14 05:17:47;;;;;;;5.37;2.12;;;6.90;99.90;;;;;;4400857;32;20094;-73
2022/11/14 05:20:13;;;;;;;10.88;4.32;;;6.80;99.90;;;;;;4401303;32;20058;-73
2022/11/14 05:22:40;;;;;;;3.53;2.37;;;6.90;99.90;;;;;;4374201;32;20517;-74
2022/11/14 05:25:06;;;;;;;2.95;2.25;;;6.90;99.90;;;;;;4369386;32;20156;-77
2022/11/14 05:27:32;;;;;;;2.50;2.25;;;6.80;99.90;;;;;;4363641;32;20214;-78
2022/11/14 05:29:57;;;;;;;14.57;3.72;;;6.80;99.90;;;;;;4368980;32;20090;-76
2022/11/14 05:32:23;;;;;;;18.48;3.35;;;6.80;99.90;;;;;;4367038;32;20241;-77
2022/11/14 05:34:48;;;;;;;16.95;3.10;;;6.80;99.90;;;;;;4348123;32;21039;-76
2022/11/14 05:37:14;;;;;;;9.98;4.90;;;6.80;99.90;;;;;;4372436;32;20513;-72
2022/11/14 05:39:39;;;;;;;4.43;2.28;;;6.70;99.90;;;;;;4402958;32;20146;-73
2022/11/14 05:42:05;;;;;;;9.02;4.12;;;6.80;99.90;;;;;;4402885;32;20117;-72
2022/11/14 05:44:30;;;;;;;15.45;4.68;;;6.80;99.90;;;;;;4403426;32;20058;-73
2022/11/14 05:46:56;;;;;;;7.05;2.90;;;6.80;99.90;;;;;;4402265;32;20149;-73
2022/11/14 05:49:22;;;;;;;10.48;3.83;;;6.80;99.90;;;;;;4404840;32;20140;-73
2022/11/14 05:51:48;;;;;;;3.78;2.15;;;6.90;99.90;;;;;;4395239;32;20128;-76
2022/11/14 05:54:14;;;;;;;7.53;3.55;;;6.80;99.90;;;;;;4361262;32;20136;-75
2022/11/14 05:56:40;;;;;;;3.80;2.42;;;6.90;99.90;;;;;;4375029;32;20133;-73
2022/11/14 05:59:05;;;;;;;10.55;3.55;;;6.80;99.90;;;;;;4399988;32;20113;-73
2022/11/14 06:01:31;;;;;;;8.57;2.45;;;6.70;99.90;;;;;;4396682;32;20439;-76
2022/11/14 06:03:56;;;;;;;3.33;2.47;;;6.80;99.90;;;;;;4362744;32;20093;-75
2022/11/14 06:06:22;;;;;;;10.15;2.83;;;6.80;99.90;;;;;;4362197;32;20086;-74
2022/11/14 06:08:48;;;;;;;13.68;4.90;;;6.80;99.90;;;;;;4353968;32;20314;-77
2022/11/14 06:11:16;;;;;;;14.38;4.50;;;6.80;99.90;;;;;;4364702;32;20093;-77
2022/11/14 06:13:42;;;;;;;4.43;2.67;;;6.80;99.90;;;;;;4349457;32;20519;-76
2022/11/14 06:16:12;;;;;;;9.93;2.75;;;6.70;99.90;;;;;;4357605;32;20831;-77
2022/11/14 06:18:38;;;;;;;7.63;2.73;;;6.80;99.90;;;;;;4322453;32;20391;-76
2022/11/14 06:21:08;;;;;;;6.65;3.17;;;6.70;99.90;;;;;;4327223;32;20086;-78
2022/11/14 06:23:34;;;;;;;7.78;2.92;;;6.70;99.90;;;;;;4309080;32;20228;-77
2022/11/14 06:26:01;;;;;;;3.72;2.33;;;6.70;99.90;;;;;;4311017;32;20062;-79
2022/11/14 06:28:27;;;;;;;5.40;3.85;;;6.70;99.90;;;;;;4335749;32;20265;-78
2022/11/14 06:31:02;;;;;;;9.85;4.03;;;6.60;99.90;;;;;;4303027;32;21113;-77
2022/11/14 06:33:32;;;;;;;10.18;4.90;;;6.60;99.90;;;;;;4332721;32;20277;-77
2022/11/14 06:36:00;;;;;;;5.70;2.90;;;6.70;99.90;;;;;;4341041;32;20425;-77
2022/11/14 06:38:27;;;;;;;9.23;2.40;;;6.60;99.90;;;;;;4341390;32;20382;-76
2022/11/14 06:41:08;;;;;;;25.55;3.67;;;6.50;99.90;;;;;;4344028;32;21437;-76
2022/11/14 06:43:35;;;;;;;24.73;4.90;;;6.50;99.90;;;;;;4352095;32;20155;-78
2022/11/14 06:46:03;;;;;;;4.47;2.87;;;6.50;99.90;;;;;;4366235;32;20299;-77
2022/11/14 06:48:30;;;;;;;6.95;2.37;;;6.50;99.90;;;;;;4367968;32;20808;-77
2022/11/14 06:50:57;;;;;;;24.00;2.78;;;6.50;99.90;;;;;;4361432;32;20103;-76
2022/11/14 06:53:23;;;;;;;15.02;4.82;;;6.50;99.90;;;;;;4359401;32;20518;-77
2022/11/14 06:55:58;;;;;;;4.32;2.15;;;6.50;99.90;;;;;;4369382;32;20275;-77
2022/11/14 06:58:33;;;;;;;3.92;2.30;;;6.50;99.90;;;;;;4366674;32;20122;-78
2022/11/14 07:01:04;;;;;;;7.47;2.62;;;6.50;99.90;;;;;;4343888;32;20265;-78
2022/11/14 07:03:30;;;;;;;9.20;3.67;;;6.60;99.90;;;;;;4331255;32;20268;-76
2022/11/14 07:05:58;;;;;;;9.73;4.07;;;6.60;99.90;;;;;;4350158;32;20098;-77
2022/11/14 07:08:24;;;;;;;4.62;2.78;;;6.60;99.90;;;;;;4357976;32;20115;-75
2022/11/14 07:10:49;;;;;;;8.82;4.30;;;6.60;99.90;;;;;;4352758;32;20097;-75
2022/11/14 07:13:15;;;;;;;35.25;3.72;;;6.60;99.90;;;;;;4362394;32;20101;-77
2022/11/14 07:15:57;;;;;;;13.18;3.65;;;6.50;99.90;;;;;;4365046;32;20251;-77
2022/11/14 07:18:22;;;;;;;4.10;1.92;;;6.50;99.90;;;;;;4368519;32;20408;-76
2022/11/14 07:20:48;;;;;;;11.40;3.75;;;6.50;99.90;;;;;;4356709;32;20151;-77
2022/11/14 07:23:14;;;;;;;13.40;3.60;;;6.60;99.90;;;;;;4357830;32;20443;-78
2022/11/14 07:25:40;;;;;;;8.73;3.50;;;6.60;99.90;;;;;;4365443;32;20174;-77
2022/11/14 07:28:06;;;;;;;12.23;3.50;;;6.60;99.90;;;;;;4371442;32;20097;-77
2022/11/14 07:30:32;;;;;;;6.65;3.80;;;6.60;99.90;;;;;;4355422;32;107308;-77
2022/11/14 07:32:58;;;;;;;3.47;2.60;;;6.60;99.90;;;;;;4336111;32;21043;-76
2022/11/14 07:35:24;;;;;;;7.15;3.33;;;6.70;99.90;;;;;;4351153;32;20215;-77
2022/11/14 07:37:50;;;;;;;7.85;3.60;;;6.80;99.90;;;;;;4361447;32;20097;-77
2022/11/14 07:40:16;;;;;;;10.52;3.15;;;6.80;99.90;;;;;;4373139;32;20082;-76
2022/11/14 07:42:41;;;;;;;5.43;2.97;;;6.90;99.90;;;;;;4374058;32;20220;-76
2022/11/14 07:45:08;;;;;;;25.73;4.85;;;7.00;99.90;;;;;;4366787;32;20814;-77
2022/11/14 07:47:33;;;;;;;8.85;4.47;;;7.10;99.90;;;;;;4368335;32;20172;-76
2022/11/14 07:49:59;;;;;;;2.78;1.92;;;7.10;99.90;;;;;;4347738;32;20073;-75
2022/11/14 07:52:24;;;;;;;5.57;3.37;;;7.20;99.90;;;;;;4352246;32;20798;-76
2022/11/14 07:54:50;;;;;;;1.85;1.75;;;7.20;99.90;;;;;;4363094;32;20101;-75
2022/11/14 07:57:15;;;;;;;9.20;2.12;;;7.30;99.90;;;;;;4370452;32;20097;-76
2022/11/14 07:59:41;;;;;;;7.97;3.53;;;7.30;99.90;;;;;;4362261;32;20103;-76
2022/11/14 08:02:12;;;;;;;4.22;2.47;;;7.30;99.90;;;;;;4353508;32;20635;-77
2022/11/14 08:04:37;;;;;;;8.43;2.78;;;7.30;99.90;;;;;;4350666;32;20210;-77
2022/11/14 08:07:03;;;;;;;6.90;3.42;;;7.40;99.90;;;;;;4363810;32;20660;-78
2022/11/14 08:09:28;;;;;;;8.25;2.60;;;7.50;99.90;;;;;;4375244;32;20094;-77
2022/11/14 08:11:54;;;;;;;4.55;2.05;;;7.60;99.90;;;;;;4368200;32;20101;-74
2022/11/14 08:14:19;;;;;;;6.40;3.25;;;7.50;99.90;;;;;;4363854;32;20585;-77
2022/11/14 08:16:45;;;;;;;24.10;3.08;;;7.60;99.90;;;;;;4367947;32;20102;-77
2022/11/14 08:19:10;;;;;;;7.53;2.28;;;7.60;99.90;;;;;;4359624;32;20901;-80
2022/11/14 08:21:35;;;;;;;12.10;2.42;;;7.60;99.90;;;;;;4364383;32;20101;-77
2022/11/14 08:24:01;;;;;;;7.07;3.25;;;7.70;99.90;;;;;;4364016;32;20166;-77
2022/11/14 08:26:27;;;;;;;3.00;2.58;;;7.70;99.90;;;;;;4370672;32;20122;-77
2022/11/14 08:28:53;;;;;;;1.73;1.55;;;7.60;99.90;;;;;;4357204;32;20106;-78
2022/11/14 08:31:19;;;;;;;6.32;3.28;;;7.70;99.90;;;;;;4349108;32;20416;-78
2022/11/14 08:33:45;;;;;;;2.40;2.20;;;7.80;99.90;;;;;;4348052;32;20312;-77
2022/11/14 08:36:11;;;;;;;12.05;4.10;;;7.90;99.90;;;;;;4358709;32;20414;-78
2022/11/14 08:38:37;;;;;;;22.35;2.92;;;8.10;99.90;;;;;;4343423;32;21698;-77
2022/11/14 08:41:03;;;;;;;11.15;3.78;;;8.00;99.90;;;;;;4364172;32;20847;-77
2022/11/14 08:43:30;;;;;;;2.60;2.03;;;7.90;99.90;;;;;;4374094;32;20550;-74
2022/11/14 08:45:58;;;;;;;10.13;2.87;;;7.90;99.90;;;;;;4365684;32;20082;-75
2022/11/14 08:48:23;;;;;;;2.83;2.17;;;7.90;99.90;;;;;;4358848;32;20130;-77
2022/11/14 08:50:49;;;;;;;3.40;2.28;;;8.10;99.90;;;;;;4350707;32;22207;-80
2022/11/14 08:53:15;;;;;;;9.85;3.62;;;8.20;99.90;;;;;;4345619;32;20415;-77
2022/11/14 08:55:45;;;;;;;5.53;1.98;;;8.30;99.90;;;;;;4361468;32;20113;-77
2022/11/14 08:58:11;;;;;;;6.55;2.75;;;8.30;99.90;;;;;;4374283;32;20093;-78
2022/11/14 09:00:36;;;;;;;10.88;3.85;;;8.50;99.90;;;;;;4365581;32;20609;-77
2022/11/14 09:03:08;;;;;;;4.55;2.92;;;8.50;99.90;;;;;;4352946;32;20113;-76
2022/11/14 09:05:34;;;;;;;7.75;3.60;;;8.50;99.90;;;;;;4356878;32;20176;-78
2022/11/14 09:08:01;;;;;;;5.70;2.92;;;8.50;99.90;;;;;;4362691;32;20094;-76
2022/11/14 09:10:26;;;;;;;11.80;2.80;;;8.60;99.90;;;;;;4365278;32;20094;-77
2022/11/14 09:12:56;;;;;;;7.80;2.90;;;8.50;99.90;;;;;;4362303;32;20094;-78
2022/11/14 09:15:21;;;;;;;14.80;2.95;;;8.50;99.90;;;;;;4366858;32;20517;-79
2022/11/14 09:17:47;;;;;;;5.53;2.40;;;8.50;99.90;;;;;;4367379;32;20162;-80
2022/11/14 09:20:13;;;;;;;2.17;1.92;;;8.60;99.90;;;;;;4361573;32;20584;-79
2022/11/14 09:22:38;;;;;;;10.98;2.28;;;8.70;99.90;;;;;;4358226;32;20270;-78
2022/11/14 09:25:04;;;;;;;10.90;2.80;;;8.80;99.90;;;;;;4369920;32;20155;-77
2022/11/14 09:27:30;;;;;;;7.55;2.08;;;8.90;99.90;;;;;;4370315;32;20139;-78
2022/11/14 09:29:55;;;;;;;11.15;2.22;;;9.00;99.90;;;;;;4371206;32;20086;-81
2022/11/14 09:32:21;;;;;;;10.57;4.43;;;9.10;99.90;;;;;;4360896;32;20130;-78
2022/11/14 09:34:46;;;;;;;9.32;2.42;;;9.20;99.90;;;;;;4358730;32;20148;-77
2022/11/14 09:37:12;;;;;;;8.57;3.15;;;9.30;99.90;;;;;;4352875;32;20094;-77
2022/11/14 09:39:39;;;;;;;2.20;1.87;;;9.20;99.90;;;;;;4366722;32;21118;-78
2022/11/14 09:42:35;;;;;;;7.05;3.58;;;9.20;99.90;;;;;;4368427;32;20128;-78
2022/11/14 09:45:09;;;;;;;25.80;2.83;;;9.20;99.90;;;;;;4358775;32;20515;-77
2022/11/14 09:47:43;;;;;;;7.50;2.42;;;9.30;99.90;;;;;;4369774;32;20336;-77
2022/11/14 09:50:17;;;;;;;5.40;2.97;;;9.40;99.90;;;;;;4358978;32;20108;-76
2022/11/14 09:52:48;;;;;;;3.75;2.10;;;9.50;99.90;;;;;;4353532;32;20214;-77
2022/11/14 09:55:20;;;;;;;8.95;2.42;;;9.40;99.90;;;;;;4365698;32;20539;-75
2022/11/14 09:57:46;;;;;;;21.48;3.47;;;9.50;99.90;;;;;;4357260;32;20832;-77
2022/11/14 10:00:16;;;;;;;9.05;3.30;;;9.70;99.90;;;;;;4352205;32;20113;-76
2022/11/14 10:03:13;;;;;;;3.72;1.98;;;9.80;99.90;;;;;;4343616;32;20187;-78
2022/11/14 10:05:53;;;;;;;7.90;3.33;;;10.00;99.90;;;;;;4345483;32;20568;-77
2022/11/14 10:08:38;;;;;;;4.78;2.58;;;10.20;99.90;;;;;;4357443;32;20077;-77
2022/11/14 10:11:33;;;;;;;5.22;2.28;;;10.20;99.90;;;;;;4364560;32;20098;-76
2022/11/14 10:14:35;;;;;;;3.67;2.10;;;10.20;99.90;;;;;;4356420;32;20097;-79
2022/11/14 10:17:41;;;;;;;21.70;3.03;;;10.40;99.90;;;;;;4355899;32;20109;-76
2022/11/14 10:20:22;;;;;;;11.15;2.75;;;10.20;99.90;;;;;;4337968;32;20176;-76
2022/11/14 10:23:17;;;;;;;6.95;2.55;;;10.40;99.90;;;;;;4341434;32;20245;-77
2022/11/14 10:26:05;;;;;;;1.00;0.98;;;10.50;99.90;;;;;;4345204;32;20113;-77
2022/11/14 10:28:53;;;;;;;4.37;2.40;;;10.70;99.90;;;;;;4353506;32;20121;-78
2022/11/14 10:31:39;;;;;;;10.23;2.62;;;10.80;99.90;;;;;;4331696;32;20239;-77
2022/11/14 10:34:12;;;;;;;2.25;1.85;;;10.90;99.90;;;;;;4337705;32;20109;-77
2022/11/14 10:36:55;;;;;;;3.92;2.62;;;10.90;99.90;;;;;;4344450;32;20682;-76
2022/11/14 10:39:27;;;;;;;3.53;2.30;;;10.80;99.90;;;;;;4356607;32;21204;-77
2022/11/14 10:41:58;;;;;;;1.98;1.55;;;10.70;99.90;;;;;;4356098;32;20122;-76
2022/11/14 10:44:31;;;;;;;3.87;2.58;;;10.60;99.90;;;;;;4359592;32;21174;-75
2022/11/14 10:47:02;;;;;;;3.40;1.65;;;10.50;99.90;;;;;;4359004;32;20291;-76
2022/11/14 10:49:30;;;;;;;;;;;10.60;99.90;;;;;;4361601;32;20086;-75
2022/11/14 10:52:00;;;;;;;4.37;2.30;;;10.60;99.90;;;;;;4351384;32;19977;-77
2022/11/14 10:54:35;;;;;;;2.40;1.55;;;10.80;99.90;;;;;;4351616;32;20114;-78
2022/11/14 10:57:02;;;;;;;4.82;2.30;;;10.90;99.90;;;;;;4356133;32;21082;-76
2022/11/14 10:59:27;;;;;;;16.35;2.45;;;11.00;99.90;;;;;;4361552;32;20402;-77
2022/11/14 11:01:55;;;;;;;4.65;2.90;;;11.20;99.90;;;;;;4357199;32;20433;-79
2022/11/14 11:04:26;;;;;;;2.45;1.55;;;11.30;99.90;;;;;;4349348;32;20358;-78
2022/11/14 11:06:54;;;;;;;10.55;3.65;;;11.20;99.90;;;;;;4350809;32;20097;-77
2022/11/14 11:11:30;;;;;;;2.37;2.15;;;11.20;99.90;;;;;;4365736;32;20091;-77
2022/11/14 11:12:16;;;;;;;5.90;2.67;;;11.20;99.90;;;;;;4356029;32;21378;-77
2022/11/14 11:14:43;;;;;;;4.15;2.58;;;11.50;99.90;;;;;;4355054;32;20169;-77
2022/11/14 11:17:14;;;;;;;9.68;2.37;;;11.90;99.90;;;;;;4348816;32;20625;-75
2022/11/14 11:19:40;;;;;;;2.75;2.20;;;12.10;99.90;;;;;;4337978;32;20128;-76
2022/11/14 11:22:28;;;;;;;2.60;2.00;;;12.10;99.90;;;;;;4350078;32;20423;-75
2022/11/14 11:24:54;;;;;;;6.97;1.70;;;12.00;99.90;;;;;;4363816;32;20557;-74
2022/11/14 11:27:25;;;;;;;5.50;1.98;;;12.00;99.90;;;;;;4378960;32;20229;-74
2022/11/14 11:30:16;;;;;;;3.62;2.22;;;12.40;99.90;;;;;;4373374;32;20085;-75
2022/11/14 11:32:42;;;;;;;4.85;2.40;;;12.60;99.90;;;;;;4358510;32;20379;-76
2022/11/14 11:35:13;;;;;;;14.48;2.35;;;12.50;99.90;;;;;;4363032;32;20103;-76
2022/11/14 11:37:43;;;;;;;5.68;2.33;;;12.60;99.90;;;;;;4369513;32;20106;-77
2022/11/14 11:40:16;;;;;;;5.18;1.73;;;12.70;99.90;;;;;;4374805;32;20271;-76
2022/11/14 11:42:48;;;;;;;32.42;1.60;;;12.80;99.90;;;;;;4366629;32;20197;-76
2022/11/14 11:45:17;;;;;;;1.60;1.42;;;13.20;99.90;;;;;;4373226;32;20090;-77
2022/11/14 11:47:51;;;;;;;6.43;1.92;;;13.20;99.90;;;;;;4370259;32;20140;-76
2022/11/14 11:50:19;;;;;;;1.40;1.00;;;13.10;99.90;;;;;;4369209;32;21067;-75
2022/11/14 11:53:01;;;;;;;3.55;1.35;;;13.20;99.90;;;;;;4352785;32;20292;-77
2022/11/14 11:55:33;;;;;;;3.90;1.50;;;13.30;99.90;;;;;;4346638;32;20853;-74
2022/11/14 11:58:21;;;;;;;3.90;1.95;;;13.30;99.90;;;;;;4361444;32;20109;-76
2022/11/14 12:00:51;;;;;;;3.65;2.15;;;13.40;99.90;;;;;;4342274;32;20094;-77
2022/11/14 12:03:17;;;;;;;5.67;1.83;;;13.70;99.90;;;;;;4349884;32;20477;-73
2022/11/14 12:06:24;;;;;;;15.00;1.83;;;14.10;99.90;;;;;;4349153;32;20308;-74
2022/11/14 12:09:14;;;;;;;2.10;1.52;;;14.00;99.90;;;;;;4338877;32;20987;-74
2022/11/14 12:11:44;;;;;;;8.13;3.07;;;14.50;99.90;;;;;;4343575;32;20865;-74
2022/11/14 12:14:32;;;;;;;3.20;1.20;;;14.40;99.90;;;;;;4355801;32;21218;-74
2022/11/14 12:17:23;;;;;;;3.47;2.37;;;14.50;99.90;;;;;;4345382;32;20626;-74
2022/11/14 12:20:18;;;;;;;4.32;1.92;;;14.60;99.90;;;;;;4351354;32;20703;-74
2022/11/14 12:23:08;;;;;;;2.87;1.70;;;14.60;99.90;;;;;;4341207;32;20090;-75
2022/11/14 12:25:47;;;;;;;1.27;1.20;;;14.20;99.90;;;;;;4346149;32;20244;-74
2022/11/14 12:28:28;;;;;;;4.28;2.03;;;14.30;99.90;;;;;;4367721;32;20161;-75
2022/11/14 12:31:00;;;;;;;7.07;1.35;;;14.80;99.90;;;;;;4353885;32;20078;-74
2022/11/14 12:33:33;;;;;;;2.05;1.60;;;14.70;99.90;;;;;;4345541;32;21434;-75
2022/11/14 12:36:01;;;;;;;2.62;1.20;;;14.70;99.90;;;;;;4352818;32;20082;-75
2022/11/14 12:38:42;;;;;;;8.38;2.83;;;14.60;99.90;;;;;;4353559;32;20617;-75
2022/11/14 12:41:08;;;;;;;9.50;1.85;;;14.70;99.90;;;;;;4330723;32;20156;-73
2022/11/14 12:43:37;;;;;;;1.73;1.15;;;14.80;99.90;;;;;;4327028;32;20139;-75
2022/11/14 12:46:08;;;;;;;3.62;1.85;;;14.50;99.90;;;;;;4332676;32;20654;-74
2022/11/14 12:48:37;;;;;;;2.75;1.67;;;14.40;99.90;;;;;;4333807;32;20192;-76
2022/11/14 12:51:24;;;;;;;1.58;1.40;;;14.30;99.90;;;;;;4339065;32;20113;-76
2022/11/14 12:53:50;;;;;;;2.85;1.98;;;14.00;99.90;;;;;;4326999;32;20105;-75
2022/11/14 12:56:33;;;;;;;4.32;2.70;;;13.90;99.90;;;;;;4346321;32;20111;-74
2022/11/14 12:59:26;;;;;;;2.30;1.42;;;13.90;99.90;;;;;;4348226;32;20231;-76
2022/11/14 13:01:55;;;;;;;2.03;1.27;;;13.80;99.90;;;;;;4331609;32;20460;-77